createdAt,value
2023-01-19T00:01:59.489Z,7.25
2023-01-19T00:04:30.109Z,6.43
2023-01-19T00:07:02.693Z,7.75
2023-01-19T00:09:34.374Z,6.20
2023-01-19T00:12:05.849Z,6.50
2023-01-19T00:14:36.245Z,6.10
2023-01-19T00:17:07.167Z,6.80
2023-01-19T00:19:37.499Z,6.85
2023-01-19T00:22:08.658Z,7.07
2023-01-19T00:24:39.477Z,7.03
2023-01-19T00:27:10.254Z,7.03
2023-01-19T00:29:41.177Z,6.50
2023-01-19T00:32:13.861Z,6.55
2023-01-19T00:34:50.252Z,7.20
2023-01-19T00:37:21.749Z,6.88
2023-01-19T00:39:54.951Z,6.68
2023-01-19T00:42:44.001Z,6.00
2023-01-19T00:45:17.742Z,6.20
2023-01-19T00:47:50.111Z,6.85
2023-01-19T00:50:20.716Z,7.45
2023-01-19T00:52:51.912Z,6.32
2023-01-19T00:55:23.118Z,7.25
2023-01-19T00:57:54.328Z,6.45
2023-01-19T01:00:25.836Z,7.50
2023-01-19T01:02:57.791Z,6.72
2023-01-19T01:05:28.237Z,6.40
2023-01-19T01:07:58.527Z,6.82
2023-01-19T01:10:30.622Z,6.60
2023-01-19T01:13:21.081Z,7.05
2023-01-19T01:15:53.399Z,7.13
2023-01-19T01:18:24.696Z,9.20
2023-01-19T01:21:02.911Z,9.38
2023-01-19T01:23:33.786Z,9.43
2023-01-19T01:26:04.469Z,8.02
2023-01-19T01:28:34.790Z,9.73
2023-01-19T01:31:05.550Z,8.27
2023-01-19T01:33:40.690Z,8.55
2023-01-19T01:36:13.351Z,7.30
2023-01-19T01:38:47.168Z,8.27
2023-01-19T01:41:17.906Z,6.50
2023-01-19T01:44:02.691Z,6.03
2023-01-19T01:46:33.411Z,6.70
2023-01-19T01:49:24.120Z,7.05
2023-01-19T01:51:55.441Z,6.18
2023-01-19T01:54:31.343Z,5.00
2023-01-19T01:57:05.337Z,4.68
2023-01-19T01:59:42.016Z,4.63
2023-01-19T02:02:44.554Z,5.07
2023-01-19T02:05:34.443Z,4.70
2023-01-19T02:08:47.022Z,4.50
2023-01-19T02:11:36.799Z,4.72
2023-01-19T02:14:07.813Z,4.97
2023-01-19T02:16:39.199Z,4.10
2023-01-19T02:19:14.529Z,4.53
2023-01-19T02:22:15.893Z,5.10
2023-01-19T02:24:46.445Z,5.68
2023-01-19T02:27:18.720Z,4.60
2023-01-19T02:29:49.520Z,5.85
2023-01-19T02:32:19.919Z,5.40
2023-01-19T02:34:50.897Z,5.10
2023-01-19T02:37:22.090Z,5.25
2023-01-19T02:39:58.619Z,5.07
2023-01-19T02:42:47.419Z,5.43
2023-01-19T02:45:24.298Z,5.75
2023-01-19T02:47:54.888Z,5.10
2023-01-19T02:50:38.272Z,4.60
2023-01-19T02:53:09.182Z,5.63
2023-01-19T02:55:40.009Z,5.60
2023-01-19T02:58:21.891Z,5.00
2023-01-19T03:00:58.254Z,6.07
2023-01-19T03:03:33.320Z,6.15
2023-01-19T03:06:24.233Z,6.95
2023-01-19T03:09:13.807Z,5.10
2023-01-19T03:11:48.636Z,5.30
2023-01-19T03:14:24.587Z,5.68
2023-01-19T03:16:59.206Z,5.13
2023-01-19T03:19:43.910Z,4.45
2023-01-19T03:22:24.220Z,4.72
2023-01-19T03:25:00.712Z,4.60
2023-01-19T03:27:42.162Z,4.57
2023-01-19T03:30:26.088Z,4.82
2023-01-19T03:33:02.724Z,3.60
2023-01-19T03:35:36.314Z,4.25
2023-01-19T03:38:09.667Z,3.78
2023-01-19T03:40:41.081Z,4.47
2023-01-19T03:43:12.028Z,4.22
2023-01-19T03:45:44.790Z,4.20
2023-01-19T03:48:16.041Z,3.63
2023-01-19T03:50:46.936Z,3.75
2023-01-19T03:53:20.581Z,3.45
2023-01-19T03:55:58.844Z,5.30
2023-01-19T03:58:29.613Z,7.30
2023-01-19T04:01:02.852Z,11.50
2023-01-19T04:03:34.517Z,12.43
2023-01-19T04:06:05.037Z,8.77
2023-01-19T04:08:36.153Z,9.55
2023-01-19T04:11:06.806Z,5.72
2023-01-19T04:13:37.812Z,6.03
2023-01-19T04:16:08.805Z,4.10
2023-01-19T04:18:39.728Z,3.40
2023-01-19T04:21:10.616Z,3.55
2023-01-19T04:23:41.326Z,3.40
2023-01-19T04:26:14.863Z,3.58
2023-01-19T04:28:45.980Z,3.03
2023-01-19T04:31:16.661Z,2.95
2023-01-19T04:33:47.257Z,2.72
2023-01-19T04:36:18.394Z,3.67
2023-01-19T04:38:49.595Z,3.53
2023-01-19T04:41:20.387Z,2.88
2023-01-19T04:43:51.228Z,3.30
2023-01-19T04:46:22.230Z,4.28
2023-01-19T04:48:53.600Z,4.18
2023-01-19T04:51:24.191Z,4.45
2023-01-19T04:53:54.883Z,3.78
2023-01-19T04:56:25.319Z,3.17
2023-01-19T04:58:56.480Z,4.28
2023-01-19T05:01:26.969Z,3.80
2023-01-19T05:04:00.737Z,3.50
2023-01-19T05:06:31.960Z,3.38
2023-01-19T05:09:02.900Z,3.70
2023-01-19T05:11:33.532Z,2.80
2023-01-19T05:14:05.980Z,2.83
2023-01-19T05:16:37.662Z,3.90
2023-01-19T05:19:08.123Z,2.83
2023-01-19T05:21:38.548Z,3.20
2023-01-19T05:24:09.388Z,3.05
2023-01-19T05:26:48.760Z,2.20
2023-01-19T05:29:19.221Z,3.17
2023-01-19T05:31:49.928Z,3.03
2023-01-19T05:34:20.468Z,2.88
2023-01-19T05:36:52.448Z,2.85
2023-01-19T05:39:23.162Z,2.47
2023-01-19T05:41:53.619Z,3.13
2023-01-19T05:44:24.580Z,6.03
2023-01-19T05:46:55.048Z,11.13
2023-01-19T05:49:26.016Z,3.70
2023-01-19T05:51:57.022Z,3.47
2023-01-19T05:54:27.636Z,2.30
2023-01-19T05:56:58.678Z,2.42
2023-01-19T05:59:29.186Z,2.63
2023-01-19T06:02:01.015Z,3.17
2023-01-19T06:04:31.594Z,2.55
2023-01-19T06:07:03.216Z,2.90
2023-01-19T06:09:34.944Z,3.33
2023-01-19T06:12:06.053Z,2.97
2023-01-19T06:14:37.955Z,3.40
2023-01-19T06:17:09.715Z,2.97
2023-01-19T06:19:40.218Z,2.30
2023-01-19T06:22:10.945Z,2.88
2023-01-19T06:24:42.396Z,6.20
2023-01-19T06:27:12.748Z,3.28
2023-01-19T06:29:43.697Z,3.03
2023-01-19T06:32:14.167Z,2.80
2023-01-19T06:34:45.123Z,3.17
2023-01-19T06:37:17.668Z,3.03
2023-01-19T06:39:47.904Z,2.55
2023-01-19T06:42:18.365Z,2.67
2023-01-19T06:44:49.143Z,2.65
2023-01-19T06:47:19.966Z,3.45
2023-01-19T06:49:51.372Z,2.80
2023-01-19T06:52:21.946Z,2.58
2023-01-19T06:54:54.632Z,3.33
2023-01-19T06:57:27.265Z,3.15
2023-01-19T06:59:59.794Z,3.15
2023-01-19T07:02:31.112Z,3.58
2023-01-19T07:05:04.122Z,3.28
2023-01-19T07:07:34.747Z,3.50
2023-01-19T07:10:05.177Z,3.20
2023-01-19T07:12:36.363Z,3.58
2023-01-19T07:15:08.536Z,4.03
2023-01-19T07:17:39.882Z,3.38
2023-01-19T07:20:15.472Z,3.58
2023-01-19T07:22:49.940Z,3.55
2023-01-19T07:25:22.120Z,4.22
2023-01-19T07:27:53.022Z,3.80
2023-01-19T07:30:23.797Z,4.32
2023-01-19T07:32:58.805Z,5.22
2023-01-19T07:35:30.630Z,4.70
2023-01-19T07:38:07.153Z,3.60
2023-01-19T07:40:37.770Z,5.85
2023-01-19T07:43:08.606Z,4.00
2023-01-19T07:45:39.405Z,4.47
2023-01-19T07:48:12.003Z,5.88
2023-01-19T07:50:43.248Z,4.28
2023-01-19T07:53:14.301Z,5.57
2023-01-19T07:55:45.329Z,5.15
2023-01-19T07:58:16.157Z,4.10
2023-01-19T08:00:47.065Z,4.93
2023-01-19T08:03:18.789Z,7.65
2023-01-19T08:05:53.870Z,4.65
2023-01-19T08:08:24.596Z,4.25
2023-01-19T08:10:55.537Z,4.40
2023-01-19T08:13:27.268Z,4.82
2023-01-19T08:15:58.644Z,4.70
2023-01-19T08:18:29.342Z,4.90
2023-01-19T08:21:03.112Z,4.10
2023-01-19T08:23:33.422Z,4.70
2023-01-19T08:26:04.541Z,4.55
2023-01-19T08:28:35.501Z,4.28
2023-01-19T08:31:19.232Z,4.13
2023-01-19T08:33:51.648Z,4.45
2023-01-19T08:36:23.733Z,4.20
2023-01-19T08:38:54.626Z,3.70
2023-01-19T08:41:25.758Z,3.88
2023-01-19T08:43:56.392Z,3.75
2023-01-19T08:46:28.165Z,3.67
2023-01-19T08:48:58.759Z,4.22
2023-01-19T08:51:29.426Z,4.55
2023-01-19T08:53:59.998Z,5.32
2023-01-19T08:56:33.309Z,4.32
2023-01-19T08:59:09.914Z,4.97
2023-01-19T09:01:42.388Z,5.57
2023-01-19T09:04:15.915Z,7.28
2023-01-19T09:06:46.696Z,5.10
2023-01-19T09:09:17.430Z,4.82
2023-01-19T09:11:48.343Z,5.97
2023-01-19T09:14:20.477Z,4.78
2023-01-19T09:16:54.003Z,5.50
2023-01-19T09:19:24.253Z,5.40
2023-01-19T09:21:55.894Z,5.78
2023-01-19T09:24:26.722Z,6.50
2023-01-19T09:26:59.459Z,7.55
2023-01-19T09:29:32.966Z,6.35
2023-01-19T09:32:04.674Z,8.57
2023-01-19T09:34:35.160Z,7.32
2023-01-19T09:37:05.819Z,7.60
2023-01-19T09:39:36.456Z,6.05
2023-01-19T09:42:21.878Z,6.13
2023-01-19T09:44:55.861Z,9.77
2023-01-19T09:47:29.891Z,10.65
2023-01-19T09:50:28.358Z,6.43
2023-01-19T09:53:03.843Z,6.47
2023-01-19T09:55:34.428Z,6.40
2023-01-19T09:58:09.700Z,7.10
2023-01-19T10:00:43.586Z,10.38
2023-01-19T10:03:17.702Z,10.15
2023-01-19T10:06:04.437Z,10.15
2023-01-19T10:08:41.312Z,10.10
2023-01-19T10:11:52.672Z,12.18
2023-01-19T10:14:33.191Z,11.13
2023-01-19T10:17:22.070Z,16.25
2023-01-19T10:19:55.361Z,14.60
2023-01-19T10:22:28.998Z,11.10
2023-01-19T10:25:08.732Z,12.57
2023-01-19T10:27:39.777Z,16.42
2023-01-19T10:30:11.685Z,20.20
2023-01-19T10:32:42.273Z,28.05
2023-01-19T10:35:36.070Z,24.27
2023-01-19T10:38:07.664Z,23.73
2023-01-19T10:40:54.687Z,27.60
2023-01-19T10:43:46.560Z,18.60
2023-01-19T10:46:24.319Z,21.38
2023-01-19T10:48:55.797Z,16.92
2023-01-19T10:51:26.466Z,18.10
2023-01-19T10:54:05.229Z,19.25
2023-01-19T10:56:40.132Z,20.38
2023-01-19T10:59:32.949Z,20.63
2023-01-19T11:02:28.535Z,19.55
2023-01-19T11:05:23.428Z,23.30
2023-01-19T11:07:56.512Z,32.30
2023-01-19T11:10:30.373Z,26.20
2023-01-19T11:13:16.677Z,24.77
2023-01-19T11:15:49.895Z,23.83
2023-01-19T11:18:37.803Z,22.50
2023-01-19T11:21:10.907Z,21.58
2023-01-19T11:23:51.987Z,29.05
2023-01-19T11:26:43.873Z,30.95
2023-01-19T11:29:22.242Z,23.02
2023-01-19T11:31:54.314Z,21.08
2023-01-19T11:34:33.785Z,20.98
2023-01-19T11:37:31.582Z,20.83
2023-01-19T11:40:03.845Z,24.35
2023-01-19T11:42:37.574Z,22.45
2023-01-19T11:45:19.395Z,20.33
2023-01-19T11:47:52.784Z,22.38
2023-01-19T11:50:28.867Z,20.08
2023-01-19T11:53:18.648Z,24.77
2023-01-19T11:55:58.588Z,23.88
2023-01-19T11:58:29.155Z,20.33
2023-01-19T12:01:08.827Z,20.33
2023-01-19T12:04:05.419Z,23.15
2023-01-19T12:06:40.424Z,20.55
2023-01-19T12:09:22.916Z,23.15
2023-01-19T12:12:05.088Z,18.95
2023-01-19T12:14:41.827Z,16.05
2023-01-19T12:17:21.471Z,22.35
2023-01-19T12:19:55.992Z,26.55
2023-01-19T12:22:29.911Z,25.48
2023-01-19T12:25:26.876Z,29.70
2023-01-19T12:27:58.028Z,36.67
2023-01-19T12:30:30.672Z,31.02
2023-01-19T12:33:34.288Z,34.00
2023-01-19T12:36:07.462Z,38.22
2023-01-19T12:38:51.352Z,30.98
2023-01-19T12:41:48.637Z,25.45
2023-01-19T12:44:24.211Z,24.35
2023-01-19T12:46:56.096Z,20.60
2023-01-19T12:49:40.252Z,20.30
2023-01-19T12:52:22.244Z,21.02
2023-01-19T12:55:21.899Z,20.70
2023-01-19T12:57:56.883Z,21.17
2023-01-19T13:00:27.564Z,20.95
2023-01-19T13:03:01.193Z,22.40
2023-01-19T13:05:41.077Z,22.10
2023-01-19T13:08:14.823Z,20.55
2023-01-19T13:11:03.575Z,20.42
2023-01-19T13:13:36.894Z,20.60
2023-01-19T13:16:20.739Z,21.25
2023-01-19T13:19:07.499Z,20.08
2023-01-19T13:21:48.515Z,20.83
2023-01-19T13:24:25.618Z,23.25
2023-01-19T13:26:59.781Z,20.27
2023-01-19T13:29:36.233Z,20.08
2023-01-19T13:32:18.579Z,22.13
2023-01-19T13:34:53.243Z,20.88
2023-01-19T13:37:37.172Z,18.92
2023-01-19T13:40:09.105Z,18.50
2023-01-19T13:42:42.265Z,20.52
2023-01-19T13:45:19.680Z,20.33
2023-01-19T13:47:51.859Z,16.05
2023-01-19T13:50:24.044Z,13.82
2023-01-19T13:52:56.580Z,14.68
2023-01-19T13:55:29.352Z,13.30
2023-01-19T13:58:00.151Z,13.40
2023-01-19T14:00:31.987Z,13.05
2023-01-19T14:03:31.988Z,13.07
2023-01-19T14:06:02.888Z,12.15
2023-01-19T14:08:34.855Z,11.93
2023-01-19T14:11:06.042Z,11.05
2023-01-19T14:13:44.162Z,11.98
2023-01-19T14:16:18.889Z,12.32
2023-01-19T14:19:01.637Z,13.63
2023-01-19T14:21:45.384Z,15.38
2023-01-19T14:24:24.057Z,15.32
2023-01-19T14:26:57.181Z,13.35
2023-01-19T14:29:31.757Z,12.38
2023-01-19T14:32:21.905Z,11.32
2023-01-19T14:35:05.200Z,12.00
2023-01-19T14:37:39.534Z,11.18
2023-01-19T14:40:14.708Z,11.68
2023-01-19T14:42:49.543Z,11.35
2023-01-19T14:45:48.304Z,10.63
2023-01-19T14:48:21.385Z,11.75
2023-01-19T14:51:02.703Z,12.65
2023-01-19T14:53:38.099Z,11.98
2023-01-19T14:56:09.023Z,11.07
2023-01-19T14:58:39.603Z,9.95
2023-01-19T15:01:10.884Z,10.27
2023-01-19T15:03:45.603Z,10.40
2023-01-19T15:06:19.697Z,9.15
2023-01-19T15:08:51.048Z,8.55
2023-01-19T15:11:22.162Z,8.70
2023-01-19T15:13:53.089Z,8.60
2023-01-19T15:16:26.637Z,8.73
2023-01-19T15:18:58.195Z,9.05
2023-01-19T15:21:28.458Z,8.50
2023-01-19T15:24:01.376Z,8.05
2023-01-19T15:26:32.001Z,7.90
2023-01-19T15:29:02.748Z,8.45
2023-01-19T15:31:33.298Z,8.95
2023-01-19T15:34:03.600Z,9.63
2023-01-19T15:36:34.517Z,10.05
2023-01-19T15:39:05.741Z,10.55
2023-01-19T15:41:36.544Z,9.32
2023-01-19T15:44:09.474Z,9.18
2023-01-19T15:46:40.066Z,9.35
2023-01-19T15:49:10.830Z,9.27
2023-01-19T15:51:44.444Z,9.27
2023-01-19T15:54:16.166Z,8.07
2023-01-19T15:56:46.475Z,8.13
2023-01-19T15:59:17.472Z,9.60
2023-01-19T16:01:48.165Z,9.02
2023-01-19T16:04:18.714Z,8.77
2023-01-19T16:06:57.792Z,10.38
2023-01-19T16:09:28.576Z,8.60
2023-01-19T16:12:01.238Z,8.02
2023-01-19T16:14:32.327Z,7.00
2023-01-19T16:17:02.856Z,6.88
2023-01-19T16:19:33.102Z,6.88
2023-01-19T16:22:04.200Z,7.00
2023-01-19T16:24:34.821Z,6.95
2023-01-19T16:27:05.811Z,7.25
2023-01-19T16:29:37.061Z,7.03
2023-01-19T16:32:07.830Z,6.80
2023-01-19T16:34:39.281Z,6.20
2023-01-19T16:37:10.520Z,6.72
2023-01-19T16:39:40.862Z,6.53
2023-01-19T16:42:11.205Z,6.28
2023-01-19T16:44:41.779Z,6.40
2023-01-19T16:47:12.691Z,6.32
2023-01-19T16:49:43.633Z,5.72
2023-01-19T16:52:14.113Z,6.03
2023-01-19T16:54:45.583Z,5.57
2023-01-19T16:57:15.925Z,5.25
2023-01-19T16:59:46.547Z,6.25
2023-01-19T17:02:17.801Z,5.78
2023-01-19T17:04:49.161Z,5.47
2023-01-19T17:07:30.595Z,5.35
2023-01-19T17:10:01.040Z,4.82
2023-01-19T17:12:32.387Z,5.15
2023-01-19T17:15:02.894Z,5.47
2023-01-19T17:17:35.848Z,5.22
2023-01-19T17:20:07.093Z,5.32
2023-01-19T17:22:37.744Z,6.05
2023-01-19T17:25:08.886Z,5.20
2023-01-19T17:27:39.140Z,5.85
2023-01-19T17:30:10.697Z,5.60
2023-01-19T17:32:43.555Z,5.00
2023-01-19T17:35:13.842Z,4.75
2023-01-19T17:37:44.482Z,5.38
2023-01-19T17:40:15.000Z,5.28
2023-01-19T17:42:45.364Z,4.95
2023-01-19T17:45:15.965Z,5.72
2023-01-19T17:47:46.264Z,5.22
2023-01-19T17:50:20.384Z,5.47
2023-01-19T17:52:50.741Z,5.30
2023-01-19T17:55:20.877Z,4.60
2023-01-19T17:57:51.486Z,5.25
2023-01-19T18:00:22.159Z,4.72
2023-01-19T18:02:53.693Z,5.03
2023-01-19T18:05:24.724Z,4.38
2023-01-19T18:07:54.998Z,5.70
2023-01-19T18:10:25.153Z,5.78
2023-01-19T18:12:55.453Z,5.38
2023-01-19T18:15:25.700Z,5.45
2023-01-19T18:17:56.008Z,5.35
2023-01-19T18:20:26.848Z,6.47
2023-01-19T18:22:57.157Z,5.82
2023-01-19T18:25:27.771Z,5.93
2023-01-19T18:27:58.304Z,6.32
2023-01-19T18:30:28.866Z,5.80
2023-01-19T18:32:59.133Z,5.90
2023-01-19T18:35:30.420Z,6.70
2023-01-19T18:38:00.996Z,7.63
2023-01-19T18:40:31.534Z,8.00
2023-01-19T18:43:02.414Z,7.90
2023-01-19T18:45:32.891Z,7.07
2023-01-19T18:48:03.369Z,7.50
2023-01-19T18:50:34.374Z,8.48
2023-01-19T18:53:05.397Z,7.50
2023-01-19T18:55:37.290Z,7.95
2023-01-19T18:58:08.232Z,8.63
2023-01-19T19:00:38.885Z,7.15
2023-01-19T19:03:11.332Z,7.03
2023-01-19T19:05:42.073Z,6.70
2023-01-19T19:08:12.586Z,5.85
2023-01-19T19:10:45.872Z,5.63
2023-01-19T19:13:18.662Z,5.30
2023-01-19T19:15:49.303Z,4.18
2023-01-19T19:18:20.084Z,4.05
2023-01-19T19:20:51.170Z,4.10
2023-01-19T19:23:21.435Z,4.43
2023-01-19T19:25:52.545Z,4.18
2023-01-19T19:28:23.051Z,4.03
2023-01-19T19:31:04.613Z,3.85
2023-01-19T19:33:38.081Z,3.60
2023-01-19T19:36:09.694Z,3.80
2023-01-19T19:38:45.812Z,4.70
2023-01-19T19:41:19.710Z,5.40
2023-01-19T19:43:50.284Z,5.45
2023-01-19T19:46:23.816Z,5.38
2023-01-19T19:48:57.474Z,5.43
2023-01-19T19:51:29.446Z,4.97
2023-01-19T19:54:01.438Z,4.07
2023-01-19T19:56:33.293Z,4.70
2023-01-19T19:59:03.972Z,4.75
2023-01-19T20:01:34.721Z,4.70
2023-01-19T20:04:10.397Z,4.30
2023-01-19T20:06:45.340Z,4.60
2023-01-19T20:09:17.380Z,5.07
2023-01-19T20:11:49.900Z,4.60
2023-01-19T20:14:20.314Z,5.75
2023-01-19T20:16:51.207Z,6.10
2023-01-19T20:19:22.303Z,5.60
2023-01-19T20:21:53.188Z,5.50
2023-01-19T20:24:23.936Z,5.95
2023-01-19T20:26:55.674Z,5.28
2023-01-19T20:29:26.691Z,4.63
2023-01-19T20:31:57.701Z,3.88
2023-01-19T20:34:33.521Z,4.30
2023-01-19T20:37:05.680Z,3.58
2023-01-19T20:39:37.650Z,4.13
2023-01-19T20:42:12.523Z,3.55
2023-01-19T20:44:42.930Z,3.30
2023-01-19T20:47:13.240Z,3.35
2023-01-19T20:49:44.024Z,3.65
2023-01-19T20:52:14.793Z,4.90
2023-01-19T20:54:45.085Z,4.53
2023-01-19T20:57:15.364Z,5.20
2023-01-19T20:59:45.852Z,4.82
2023-01-19T21:02:17.776Z,4.75
2023-01-19T21:04:48.275Z,4.20
2023-01-19T21:07:18.617Z,3.97
2023-01-19T21:09:49.159Z,4.10
2023-01-19T21:12:21.340Z,3.63
2023-01-19T21:14:51.884Z,4.60
2023-01-19T21:17:22.117Z,4.50
2023-01-19T21:19:52.444Z,4.80
2023-01-19T21:22:23.784Z,7.13
2023-01-19T21:24:54.401Z,9.75
2023-01-19T21:27:24.647Z,9.88
2023-01-19T21:29:55.147Z,8.63
2023-01-19T21:32:29.454Z,9.73
2023-01-19T21:34:59.740Z,9.88
2023-01-19T21:37:32.006Z,8.43
2023-01-19T21:40:02.475Z,9.02
2023-01-19T21:42:33.021Z,8.68
2023-01-19T21:45:03.445Z,7.85
2023-01-19T21:47:38.859Z,7.03
2023-01-19T21:50:11.216Z,6.13
2023-01-19T21:52:42.021Z,5.97
2023-01-19T21:55:13.386Z,6.00
2023-01-19T21:57:43.997Z,5.15
2023-01-19T22:00:14.804Z,5.55
2023-01-19T22:02:58.603Z,4.95
2023-01-19T22:05:40.937Z,5.07
2023-01-19T22:08:11.522Z,5.68
2023-01-19T22:10:41.727Z,6.47
2023-01-19T22:13:12.335Z,6.80
2023-01-19T22:15:42.679Z,7.80
2023-01-19T22:18:17.568Z,7.78
2023-01-19T22:20:48.119Z,8.25
2023-01-19T22:23:21.661Z,7.65
2023-01-19T22:25:52.119Z,8.45
2023-01-19T22:28:23.139Z,8.15
2023-01-19T22:30:53.524Z,8.75
2023-01-19T22:33:23.773Z,9.48
2023-01-19T22:35:54.046Z,11.48
2023-01-19T22:38:24.701Z,9.98
2023-01-19T22:40:55.418Z,10.45
2023-01-19T22:43:25.663Z,10.48
2023-01-19T22:45:59.982Z,10.35
2023-01-19T22:48:32.860Z,10.57
2023-01-19T22:51:04.276Z,12.45
2023-01-19T22:53:34.681Z,12.45
2023-01-19T22:56:23.231Z,12.45
2023-01-19T22:58:54.242Z,11.30
2023-01-19T23:01:34.283Z,12.35
2023-01-19T23:04:08.805Z,14.25
2023-01-19T23:06:39.551Z,11.98
2023-01-19T23:09:13.404Z,10.32
2023-01-19T23:11:48.973Z,10.05
2023-01-19T23:14:21.816Z,10.23
2023-01-19T23:16:55.350Z,9.63
2023-01-19T23:19:25.886Z,9.38
2023-01-19T23:21:56.614Z,8.50
2023-01-19T23:24:26.951Z,9.13
2023-01-19T23:26:58.061Z,7.50
2023-01-19T23:29:28.397Z,6.63
2023-01-19T23:31:58.721Z,6.28
2023-01-19T23:34:29.537Z,6.32
2023-01-19T23:37:00.415Z,6.28
2023-01-19T23:39:33.700Z,6.43
2023-01-19T23:42:08.615Z,6.50
2023-01-19T23:44:39.372Z,5.57
2023-01-19T23:47:10.276Z,5.78
2023-01-19T23:49:41.211Z,7.30
2023-01-19T23:52:11.608Z,6.53
2023-01-19T23:54:42.613Z,6.53
2023-01-19T23:57:12.955Z,6.57
2023-01-19T23:59:52.275Z,6.85
